sensor_id;sensor_type;location;lat;lon;timestamp;temperature;humidity
8095;DHT22;4090;49.270;8.696;2023-07-20T00:01:34;24.10;87.00
8095;DHT22;4090;49.270;8.696;2023-07-20T00:04:15;24.00;86.50
8095;DHT22;4090;49.270;8.696;2023-07-20T00:06:57;24.00;87.00
8095;DHT22;4090;49.270;8.696;2023-07-20T00:09:39;24.00;88.00
8095;DHT22;4090;49.270;8.696;2023-07-20T00:12:22;24.00;87.50
8095;DHT22;4090;49.270;8.696;2023-07-20T00:15:05;23.90;86.70
8095;DHT22;4090;49.270;8.696;2023-07-20T00:17:47;23.90;86.90
8095;DHT22;4090;49.270;8.696;2023-07-20T00:20:29;23.90;87.60
8095;DHT22;4090;49.270;8.696;2023-07-20T00:23:11;23.90;87.40
8095;DHT22;4090;49.270;8.696;2023-07-20T00:25:53;23.90;86.80
8095;DHT22;4090;49.270;8.696;2023-07-20T00:28:36;23.80;88.20
8095;DHT22;4090;49.270;8.696;2023-07-20T00:31:18;23.80;86.80
8095;DHT22;4090;49.270;8.696;2023-07-20T00:34:00;23.80;86.90
8095;DHT22;4090;49.270;8.696;2023-07-20T00:36:42;23.70;87.60
8095;DHT22;4090;49.270;8.696;2023-07-20T00:39:24;23.70;87.80
8095;DHT22;4090;49.270;8.696;2023-07-20T00:42:06;23.70;87.50
8095;DHT22;4090;49.270;8.696;2023-07-20T00:44:50;23.60;87.50
8095;DHT22;4090;49.270;8.696;2023-07-20T00:47:32;23.60;88.40
8095;DHT22;4090;49.270;8.696;2023-07-20T00:50:14;23.60;88.40
8095;DHT22;4090;49.270;8.696;2023-07-20T00:52:57;23.60;88.60
8095;DHT22;4090;49.270;8.696;2023-07-20T00:55:39;23.50;89.10
8095;DHT22;4090;49.270;8.696;2023-07-20T00:58:22;23.50;87.80
8095;DHT22;4090;49.270;8.696;2023-07-20T01:01:06;23.40;88.70
8095;DHT22;4090;49.270;8.696;2023-07-20T01:03:48;23.40;90.40
8095;DHT22;4090;49.270;8.696;2023-07-20T01:06:36;23.40;89.70
8095;DHT22;4090;49.270;8.696;2023-07-20T01:09:28;23.40;89.90
8095;DHT22;4090;49.270;8.696;2023-07-20T01:12:15;23.30;89.00
8095;DHT22;4090;49.270;8.696;2023-07-20T01:15:00;23.40;89.50
8095;DHT22;4090;49.270;8.696;2023-07-20T01:17:43;23.30;89.90
8095;DHT22;4090;49.270;8.696;2023-07-20T01:20:26;23.30;90.00
8095;DHT22;4090;49.270;8.696;2023-07-20T01:23:32;23.30;89.50
8095;DHT22;4090;49.270;8.696;2023-07-20T01:26:36;23.20;89.30
8095;DHT22;4090;49.270;8.696;2023-07-20T01:29:35;23.20;90.10
8095;DHT22;4090;49.270;8.696;2023-07-20T01:32:23;23.20;89.20
8095;DHT22;4090;49.270;8.696;2023-07-20T01:35:08;23.10;89.10
8095;DHT22;4090;49.270;8.696;2023-07-20T01:37:50;23.10;89.90
8095;DHT22;4090;49.270;8.696;2023-07-20T01:40:33;23.10;89.00
8095;DHT22;4090;49.270;8.696;2023-07-20T01:43:16;23.10;89.90
8095;DHT22;4090;49.270;8.696;2023-07-20T01:45:58;23.10;90.20
8095;DHT22;4090;49.270;8.696;2023-07-20T01:48:43;23.00;90.30
8095;DHT22;4090;49.270;8.696;2023-07-20T01:51:25;23.00;90.60
8095;DHT22;4090;49.270;8.696;2023-07-20T01:54:07;23.00;90.20
8095;DHT22;4090;49.270;8.696;2023-07-20T01:56:50;22.90;90.50
8095;DHT22;4090;49.270;8.696;2023-07-20T01:59:32;22.90;90.50
8095;DHT22;4090;49.270;8.696;2023-07-20T02:02:14;22.90;90.40
8095;DHT22;4090;49.270;8.696;2023-07-20T02:04:58;22.80;91.00
8095;DHT22;4090;49.270;8.696;2023-07-20T02:07:40;22.80;91.10
8095;DHT22;4090;49.270;8.696;2023-07-20T02:10:22;22.80;90.80
8095;DHT22;4090;49.270;8.696;2023-07-20T02:13:04;22.80;90.80
8095;DHT22;4090;49.270;8.696;2023-07-20T02:15:46;22.70;90.30
8095;DHT22;4090;49.270;8.696;2023-07-20T02:18:29;22.70;90.70
8095;DHT22;4090;49.270;8.696;2023-07-20T02:21:13;22.70;91.40
8095;DHT22;4090;49.270;8.696;2023-07-20T02:23:55;22.70;91.60
8095;DHT22;4090;49.270;8.696;2023-07-20T02:26:37;22.60;91.70
8095;DHT22;4090;49.270;8.696;2023-07-20T02:29:19;22.60;91.80
8095;DHT22;4090;49.270;8.696;2023-07-20T02:32:01;22.60;91.90
8095;DHT22;4090;49.270;8.696;2023-07-20T02:34:43;22.60;91.80
8095;DHT22;4090;49.270;8.696;2023-07-20T02:37:26;22.60;91.80
8095;DHT22;4090;49.270;8.696;2023-07-20T02:40:08;22.60;91.90
8095;DHT22;4090;49.270;8.696;2023-07-20T02:42:51;22.60;92.00
8095;DHT22;4090;49.270;8.696;2023-07-20T02:45:32;22.50;92.20
8095;DHT22;4090;49.270;8.696;2023-07-20T02:48:14;22.50;92.40
8095;DHT22;4090;49.270;8.696;2023-07-20T02:50:56;22.50;92.50
8095;DHT22;4090;49.270;8.696;2023-07-20T02:53:39;22.50;92.80
8095;DHT22;4090;49.270;8.696;2023-07-20T02:56:22;22.40;92.90
8095;DHT22;4090;49.270;8.696;2023-07-20T02:59:04;22.40;93.50
8095;DHT22;4090;49.270;8.696;2023-07-20T03:01:46;22.40;93.30
8095;DHT22;4090;49.270;8.696;2023-07-20T03:04:28;22.40;93.10
8095;DHT22;4090;49.270;8.696;2023-07-20T03:07:10;22.40;93.70
8095;DHT22;4090;49.270;8.696;2023-07-20T03:09:54;22.40;93.60
8095;DHT22;4090;49.270;8.696;2023-07-20T03:12:36;22.40;93.50
8095;DHT22;4090;49.270;8.696;2023-07-20T03:15:18;22.30;93.20
8095;DHT22;4090;49.270;8.696;2023-07-20T03:17:59;22.30;93.60
8095;DHT22;4090;49.270;8.696;2023-07-20T03:20:43;22.30;93.40
8095;DHT22;4090;49.270;8.696;2023-07-20T03:23:25;22.20;93.20
8095;DHT22;4090;49.270;8.696;2023-07-20T03:26:09;22.20;93.20
8095;DHT22;4090;49.270;8.696;2023-07-20T03:28:51;22.20;93.40
8095;DHT22;4090;49.270;8.696;2023-07-20T03:31:36;22.20;93.60
8095;DHT22;4090;49.270;8.696;2023-07-20T03:34:18;22.20;93.40
8095;DHT22;4090;49.270;8.696;2023-07-20T03:37:00;22.20;93.80
8095;DHT22;4090;49.270;8.696;2023-07-20T03:39:45;22.10;93.50
8095;DHT22;4090;49.270;8.696;2023-07-20T03:42:28;22.10;93.70
8095;DHT22;4090;49.270;8.696;2023-07-20T03:45:10;22.10;93.30
8095;DHT22;4090;49.270;8.696;2023-07-20T03:47:52;22.10;93.20
8095;DHT22;4090;49.270;8.696;2023-07-20T03:50:34;22.10;93.40
8095;DHT22;4090;49.270;8.696;2023-07-20T03:53:16;22.10;93.60
8095;DHT22;4090;49.270;8.696;2023-07-20T03:55:58;22.10;93.20
8095;DHT22;4090;49.270;8.696;2023-07-20T03:58:41;22.00;92.60
8095;DHT22;4090;49.270;8.696;2023-07-20T04:01:23;22.00;93.20
8095;DHT22;4090;49.270;8.696;2023-07-20T04:04:06;22.00;93.00
8095;DHT22;4090;49.270;8.696;2023-07-20T04:06:48;22.00;93.20
8095;DHT22;4090;49.270;8.696;2023-07-20T04:09:31;22.00;93.40
8095;DHT22;4090;49.270;8.696;2023-07-20T04:12:13;22.00;92.60
8095;DHT22;4090;49.270;8.696;2023-07-20T04:14:56;22.00;92.90
8095;DHT22;4090;49.270;8.696;2023-07-20T04:17:38;22.00;92.90
8095;DHT22;4090;49.270;8.696;2023-07-20T04:20:21;22.00;92.70
8095;DHT22;4090;49.270;8.696;2023-07-20T04:23:03;22.00;93.40
8095;DHT22;4090;49.270;8.696;2023-07-20T04:25:45;22.00;93.40
8095;DHT22;4090;49.270;8.696;2023-07-20T04:28:28;22.00;94.10
8095;DHT22;4090;49.270;8.696;2023-07-20T04:31:14;22.00;93.80
8095;DHT22;4090;49.270;8.696;2023-07-20T04:33:57;22.10;94.30
8095;DHT22;4090;49.270;8.696;2023-07-20T04:36:39;22.00;94.10
8095;DHT22;4090;49.270;8.696;2023-07-20T04:39:21;22.00;94.30
8095;DHT22;4090;49.270;8.696;2023-07-20T04:42:04;22.00;94.20
8095;DHT22;4090;49.270;8.696;2023-07-20T04:44:46;22.00;94.60
8095;DHT22;4090;49.270;8.696;2023-07-20T04:47:29;22.00;94.00
8095;DHT22;4090;49.270;8.696;2023-07-20T04:50:11;21.90;94.20
8095;DHT22;4090;49.270;8.696;2023-07-20T04:52:53;21.90;94.40
8095;DHT22;4090;49.270;8.696;2023-07-20T04:55:37;21.90;94.50
8095;DHT22;4090;49.270;8.696;2023-07-20T04:58:20;21.80;94.20
8095;DHT22;4090;49.270;8.696;2023-07-20T05:01:02;21.80;94.80
8095;DHT22;4090;49.270;8.696;2023-07-20T05:03:46;21.90;95.00
8095;DHT22;4090;49.270;8.696;2023-07-20T05:06:28;21.80;94.60
8095;DHT22;4090;49.270;8.696;2023-07-20T05:09:10;21.80;94.20
8095;DHT22;4090;49.270;8.696;2023-07-20T05:11:52;21.70;94.70
8095;DHT22;4090;49.270;8.696;2023-07-20T05:14:34;21.80;95.20
8095;DHT22;4090;49.270;8.696;2023-07-20T05:17:16;21.80;94.70
8095;DHT22;4090;49.270;8.696;2023-07-20T05:19:59;21.80;94.60
8095;DHT22;4090;49.270;8.696;2023-07-20T05:22:42;21.70;94.50
8095;DHT22;4090;49.270;8.696;2023-07-20T05:25:24;21.70;94.90
8095;DHT22;4090;49.270;8.696;2023-07-20T05:28:06;21.70;94.60
8095;DHT22;4090;49.270;8.696;2023-07-20T05:30:48;21.70;94.80
8095;DHT22;4090;49.270;8.696;2023-07-20T05:33:31;21.70;94.80
8095;DHT22;4090;49.270;8.696;2023-07-20T05:36:14;21.70;94.70
8095;DHT22;4090;49.270;8.696;2023-07-20T05:38:56;21.80;95.20
8095;DHT22;4090;49.270;8.696;2023-07-20T05:41:38;21.80;95.30
8095;DHT22;4090;49.270;8.696;2023-07-20T05:44:20;21.80;95.60
8095;DHT22;4090;49.270;8.696;2023-07-20T05:47:03;21.80;95.30
8095;DHT22;4090;49.270;8.696;2023-07-20T05:49:45;21.90;96.00
8095;DHT22;4090;49.270;8.696;2023-07-20T05:52:28;21.80;95.10
8095;DHT22;4090;49.270;8.696;2023-07-20T05:55:10;21.80;95.90
8095;DHT22;4090;49.270;8.696;2023-07-20T05:57:52;21.80;95.70
8095;DHT22;4090;49.270;8.696;2023-07-20T06:00:36;21.80;95.40
8095;DHT22;4090;49.270;8.696;2023-07-20T06:03:18;21.90;95.70
8095;DHT22;4090;49.270;8.696;2023-07-20T06:06:02;21.90;96.10
8095;DHT22;4090;49.270;8.696;2023-07-20T06:08:46;21.90;95.70
8095;DHT22;4090;49.270;8.696;2023-07-20T06:11:28;21.90;96.10
8095;DHT22;4090;49.270;8.696;2023-07-20T06:14:09;21.90;95.90
8095;DHT22;4090;49.270;8.696;2023-07-20T06:16:51;21.90;95.50
8095;DHT22;4090;49.270;8.696;2023-07-20T06:19:33;21.90;95.90
8095;DHT22;4090;49.270;8.696;2023-07-20T06:22:15;21.90;96.00
8095;DHT22;4090;49.270;8.696;2023-07-20T06:24:58;21.90;96.00
8095;DHT22;4090;49.270;8.696;2023-07-20T06:27:42;21.90;96.20
8095;DHT22;4090;49.270;8.696;2023-07-20T06:30:24;21.90;95.80
8095;DHT22;4090;49.270;8.696;2023-07-20T06:33:06;21.90;96.20
8095;DHT22;4090;49.270;8.696;2023-07-20T06:35:48;21.90;95.90
8095;DHT22;4090;49.270;8.696;2023-07-20T06:38:30;21.90;96.90
8095;DHT22;4090;49.270;8.696;2023-07-20T06:41:13;21.90;96.20
8095;DHT22;4090;49.270;8.696;2023-07-20T06:43:55;21.90;95.80
8095;DHT22;4090;49.270;8.696;2023-07-20T06:46:38;21.90;96.20
8095;DHT22;4090;49.270;8.696;2023-07-20T06:49:27;21.90;97.30
8095;DHT22;4090;49.270;8.696;2023-07-20T06:52:09;22.00;97.40
8095;DHT22;4090;49.270;8.696;2023-07-20T06:54:51;22.00;97.10
8095;DHT22;4090;49.270;8.696;2023-07-20T06:57:34;22.00;97.30
8095;DHT22;4090;49.270;8.696;2023-07-20T07:00:17;22.00;96.60
8095;DHT22;4090;49.270;8.696;2023-07-20T07:02:59;22.00;96.60
8095;DHT22;4090;49.270;8.696;2023-07-20T07:05:41;22.00;96.30
8095;DHT22;4090;49.270;8.696;2023-07-20T07:08:23;22.00;96.50
8095;DHT22;4090;49.270;8.696;2023-07-20T07:11:05;22.00;96.90
8095;DHT22;4090;49.270;8.696;2023-07-20T07:13:48;22.10;97.60
8095;DHT22;4090;49.270;8.696;2023-07-20T07:16:31;22.00;96.90
8095;DHT22;4090;49.270;8.696;2023-07-20T07:19:13;22.00;96.80
8095;DHT22;4090;49.270;8.696;2023-07-20T07:21:55;22.10;97.00
8095;DHT22;4090;49.270;8.696;2023-07-20T07:24:37;22.10;97.30
8095;DHT22;4090;49.270;8.696;2023-07-20T07:27:21;22.10;97.90
8095;DHT22;4090;49.270;8.696;2023-07-20T07:30:06;22.10;97.20
8095;DHT22;4090;49.270;8.696;2023-07-20T07:32:48;22.10;97.10
8095;DHT22;4090;49.270;8.696;2023-07-20T07:35:30;22.10;97.10
8095;DHT22;4090;49.270;8.696;2023-07-20T07:38:12;22.20;96.50
8095;DHT22;4090;49.270;8.696;2023-07-20T07:40:54;22.20;96.90
8095;DHT22;4090;49.270;8.696;2023-07-20T07:43:36;22.10;96.60
8095;DHT22;4090;49.270;8.696;2023-07-20T07:46:20;22.10;96.50
8095;DHT22;4090;49.270;8.696;2023-07-20T07:49:02;22.20;97.00
8095;DHT22;4090;49.270;8.696;2023-07-20T07:51:44;22.10;96.80
8095;DHT22;4090;49.270;8.696;2023-07-20T07:54:26;22.20;97.20
8095;DHT22;4090;49.270;8.696;2023-07-20T07:57:08;22.20;97.70
8095;DHT22;4090;49.270;8.696;2023-07-20T07:59:50;22.20;96.50
8095;DHT22;4090;49.270;8.696;2023-07-20T08:02:33;22.30;95.60
8095;DHT22;4090;49.270;8.696;2023-07-20T08:05:16;22.20;95.70
8095;DHT22;4090;49.270;8.696;2023-07-20T08:07:57;22.20;96.10
8095;DHT22;4090;49.270;8.696;2023-07-20T08:10:39;22.20;95.70
8095;DHT22;4090;49.270;8.696;2023-07-20T08:13:21;22.30;94.30
8095;DHT22;4090;49.270;8.696;2023-07-20T08:16:03;22.30;95.10
8095;DHT22;4090;49.270;8.696;2023-07-20T08:18:47;22.30;95.50
8095;DHT22;4090;49.270;8.696;2023-07-20T08:21:29;22.30;95.70
8095;DHT22;4090;49.270;8.696;2023-07-20T08:24:10;22.40;96.80
8095;DHT22;4090;49.270;8.696;2023-07-20T08:26:52;22.40;96.20
8095;DHT22;4090;49.270;8.696;2023-07-20T08:29:34;22.50;95.00
8095;DHT22;4090;49.270;8.696;2023-07-20T08:32:16;22.50;93.40
8095;DHT22;4090;49.270;8.696;2023-07-20T08:35:00;22.50;93.70
8095;DHT22;4090;49.270;8.696;2023-07-20T08:37:41;22.50;93.70
8095;DHT22;4090;49.270;8.696;2023-07-20T08:40:23;22.50;92.30
8095;DHT22;4090;49.270;8.696;2023-07-20T08:43:06;22.60;92.20
8095;DHT22;4090;49.270;8.696;2023-07-20T08:45:48;22.60;92.10
8095;DHT22;4090;49.270;8.696;2023-07-20T08:48:31;22.70;92.30
8095;DHT22;4090;49.270;8.696;2023-07-20T08:51:16;22.70;92.50
8095;DHT22;4090;49.270;8.696;2023-07-20T08:53:58;22.70;92.80
8095;DHT22;4090;49.270;8.696;2023-07-20T08:56:41;22.70;93.30
8095;DHT22;4090;49.270;8.696;2023-07-20T08:59:23;22.70;93.20
8095;DHT22;4090;49.270;8.696;2023-07-20T09:02:08;22.70;93.10
8095;DHT22;4090;49.270;8.696;2023-07-20T09:04:55;22.70;93.20
8095;DHT22;4090;49.270;8.696;2023-07-20T09:07:39;22.70;93.40
8095;DHT22;4090;49.270;8.696;2023-07-20T09:10:22;22.80;93.30
8095;DHT22;4090;49.270;8.696;2023-07-20T09:13:03;22.80;93.20
8095;DHT22;4090;49.270;8.696;2023-07-20T09:15:46;22.90;93.40
8095;DHT22;4090;49.270;8.696;2023-07-20T09:18:29;22.80;92.80
8095;DHT22;4090;49.270;8.696;2023-07-20T09:21:11;22.90;92.20
8095;DHT22;4090;49.270;8.696;2023-07-20T09:23:59;22.90;92.50
8095;DHT22;4090;49.270;8.696;2023-07-20T09:26:42;22.90;92.90
8095;DHT22;4090;49.270;8.696;2023-07-20T09:29:24;22.90;93.40
8095;DHT22;4090;49.270;8.696;2023-07-20T09:32:07;23.00;92.90
8095;DHT22;4090;49.270;8.696;2023-07-20T09:34:50;23.10;91.80
8095;DHT22;4090;49.270;8.696;2023-07-20T09:37:33;23.10;91.70
8095;DHT22;4090;49.270;8.696;2023-07-20T09:40:17;23.00;92.40
8095;DHT22;4090;49.270;8.696;2023-07-20T09:42:59;23.00;93.20
8095;DHT22;4090;49.270;8.696;2023-07-20T09:45:42;23.00;92.70
8095;DHT22;4090;49.270;8.696;2023-07-20T09:48:24;23.10;91.90
8095;DHT22;4090;49.270;8.696;2023-07-20T09:51:07;23.10;91.10
8095;DHT22;4090;49.270;8.696;2023-07-20T09:53:52;23.20;90.90
8095;DHT22;4090;49.270;8.696;2023-07-20T09:56:36;23.20;91.40
8095;DHT22;4090;49.270;8.696;2023-07-20T09:59:19;23.20;90.60
8095;DHT22;4090;49.270;8.696;2023-07-20T10:02:03;23.20;91.20
8095;DHT22;4090;49.270;8.696;2023-07-20T10:04:48;23.20;91.40
8095;DHT22;4090;49.270;8.696;2023-07-20T10:07:31;23.20;91.10
8095;DHT22;4090;49.270;8.696;2023-07-20T10:10:15;23.20;92.60
8095;DHT22;4090;49.270;8.696;2023-07-20T10:13:01;23.20;92.10
8095;DHT22;4090;49.270;8.696;2023-07-20T10:15:47;23.20;89.30
8095;DHT22;4090;49.270;8.696;2023-07-20T10:18:38;23.30;87.80
8095;DHT22;4090;49.270;8.696;2023-07-20T10:21:23;23.40;88.90
8095;DHT22;4090;49.270;8.696;2023-07-20T10:24:05;23.40;90.30
8095;DHT22;4090;49.270;8.696;2023-07-20T10:26:48;23.50;88.40
8095;DHT22;4090;49.270;8.696;2023-07-20T10:29:31;23.50;85.80
8095;DHT22;4090;49.270;8.696;2023-07-20T10:32:15;23.60;86.10
8095;DHT22;4090;49.270;8.696;2023-07-20T10:34:57;23.60;88.10
8095;DHT22;4090;49.270;8.696;2023-07-20T10:37:55;23.60;90.10
8095;DHT22;4090;49.270;8.696;2023-07-20T10:40:41;23.60;90.70
8095;DHT22;4090;49.270;8.696;2023-07-20T10:43:23;23.60;90.60
8095;DHT22;4090;49.270;8.696;2023-07-20T10:46:07;23.60;91.20
8095;DHT22;4090;49.270;8.696;2023-07-20T10:49:02;23.70;89.50
8095;DHT22;4090;49.270;8.696;2023-07-20T10:51:46;23.80;85.50
8095;DHT22;4090;49.270;8.696;2023-07-20T10:54:35;23.90;87.20
8095;DHT22;4090;49.270;8.696;2023-07-20T10:57:31;24.00;85.20
8095;DHT22;4090;49.270;8.696;2023-07-20T11:00:14;24.00;84.70
8095;DHT22;4090;49.270;8.696;2023-07-20T11:02:58;24.10;83.70
8095;DHT22;4090;49.270;8.696;2023-07-20T11:05:40;24.20;84.30
8095;DHT22;4090;49.270;8.696;2023-07-20T11:08:39;24.20;83.70
8095;DHT22;4090;49.270;8.696;2023-07-20T11:11:22;24.20;85.20
8095;DHT22;4090;49.270;8.696;2023-07-20T11:14:07;24.20;84.40
8095;DHT22;4090;49.270;8.696;2023-07-20T11:16:50;24.30;83.40
8095;DHT22;4090;49.270;8.696;2023-07-20T11:19:33;24.30;83.00
8095;DHT22;4090;49.270;8.696;2023-07-20T11:22:17;24.40;80.90
8095;DHT22;4090;49.270;8.696;2023-07-20T11:24:59;24.50;80.80
8095;DHT22;4090;49.270;8.696;2023-07-20T11:27:45;24.60;80.90
8095;DHT22;4090;49.270;8.696;2023-07-20T11:30:27;24.70;82.30
8095;DHT22;4090;49.270;8.696;2023-07-20T11:33:13;24.70;81.50
8095;DHT22;4090;49.270;8.696;2023-07-20T11:35:57;24.80;81.50
8095;DHT22;4090;49.270;8.696;2023-07-20T11:38:41;24.80;84.30
8095;DHT22;4090;49.270;8.696;2023-07-20T11:41:24;24.80;81.70
8095;DHT22;4090;49.270;8.696;2023-07-20T11:44:06;25.00;78.70
8095;DHT22;4090;49.270;8.696;2023-07-20T11:47:00;25.00;78.80
8095;DHT22;4090;49.270;8.696;2023-07-20T11:49:44;24.90;85.00
8095;DHT22;4090;49.270;8.696;2023-07-20T11:52:31;24.90;86.00
8095;DHT22;4090;49.270;8.696;2023-07-20T11:55:13;24.90;88.00
8095;DHT22;4090;49.270;8.696;2023-07-20T11:58:02;24.90;88.00
8095;DHT22;4090;49.270;8.696;2023-07-20T12:00:44;25.00;86.40
8095;DHT22;4090;49.270;8.696;2023-07-20T12:03:27;25.00;83.10
8095;DHT22;4090;49.270;8.696;2023-07-20T12:06:10;25.10;84.60
8095;DHT22;4090;49.270;8.696;2023-07-20T12:08:55;25.20;84.40
8095;DHT22;4090;49.270;8.696;2023-07-20T12:11:38;25.40;78.80
8095;DHT22;4090;49.270;8.696;2023-07-20T12:14:20;25.60;75.90
8095;DHT22;4090;49.270;8.696;2023-07-20T12:17:02;25.80;74.90
8095;DHT22;4090;49.270;8.696;2023-07-20T12:19:44;25.80;79.80
8095;DHT22;4090;49.270;8.696;2023-07-20T12:22:26;25.80;82.10
8095;DHT22;4090;49.270;8.696;2023-07-20T12:25:10;25.80;77.90
8095;DHT22;4090;49.270;8.696;2023-07-20T12:27:52;25.80;78.80
8095;DHT22;4090;49.270;8.696;2023-07-20T12:30:34;26.20;72.20
8095;DHT22;4090;49.270;8.696;2023-07-20T12:33:16;26.50;71.60
8095;DHT22;4090;49.270;8.696;2023-07-20T12:36:00;26.50;72.20
8095;DHT22;4090;49.270;8.696;2023-07-20T12:38:42;26.60;71.00
8095;DHT22;4090;49.270;8.696;2023-07-20T12:41:25;26.50;73.30
8095;DHT22;4090;49.270;8.696;2023-07-20T12:44:07;26.50;73.30
8095;DHT22;4090;49.270;8.696;2023-07-20T12:46:49;26.50;73.40
8095;DHT22;4090;49.270;8.696;2023-07-20T12:49:31;26.60;74.20
8095;DHT22;4090;49.270;8.696;2023-07-20T12:52:13;26.70;74.30
8095;DHT22;4090;49.270;8.696;2023-07-20T12:54:55;26.90;71.40
8095;DHT22;4090;49.270;8.696;2023-07-20T12:57:40;27.00;71.00
8095;DHT22;4090;49.270;8.696;2023-07-20T13:00:22;27.10;69.30
8095;DHT22;4090;49.270;8.696;2023-07-20T13:03:04;27.40;67.10
8095;DHT22;4090;49.270;8.696;2023-07-20T13:05:47;27.50;67.20
8095;DHT22;4090;49.270;8.696;2023-07-20T13:08:29;27.50;68.10
8095;DHT22;4090;49.270;8.696;2023-07-20T13:11:11;27.40;69.90
8095;DHT22;4090;49.270;8.696;2023-07-20T13:13:54;27.30;67.10
8095;DHT22;4090;49.270;8.696;2023-07-20T13:16:36;27.30;68.20
8095;DHT22;4090;49.270;8.696;2023-07-20T13:19:18;27.30;67.50
8095;DHT22;4090;49.270;8.696;2023-07-20T13:22:01;27.30;66.90
8095;DHT22;4090;49.270;8.696;2023-07-20T13:24:45;27.30;69.40
8095;DHT22;4090;49.270;8.696;2023-07-20T13:27:28;27.30;71.50
8095;DHT22;4090;49.270;8.696;2023-07-20T13:30:13;27.30;68.00
8095;DHT22;4090;49.270;8.696;2023-07-20T13:32:57;27.40;68.00
8095;DHT22;4090;49.270;8.696;2023-07-20T13:35:39;27.40;68.90
8095;DHT22;4090;49.270;8.696;2023-07-20T13:38:26;27.60;65.90
8095;DHT22;4090;49.270;8.696;2023-07-20T13:41:08;27.70;64.30
8095;DHT22;4090;49.270;8.696;2023-07-20T13:43:50;27.70;64.90
8095;DHT22;4090;49.270;8.696;2023-07-20T13:46:33;27.70;64.70
8095;DHT22;4090;49.270;8.696;2023-07-20T13:49:16;27.70;66.50
8095;DHT22;4090;49.270;8.696;2023-07-20T13:51:58;27.80;62.50
8095;DHT22;4090;49.270;8.696;2023-07-20T13:54:40;27.80;64.90
8095;DHT22;4090;49.270;8.696;2023-07-20T13:57:22;27.70;66.30
8095;DHT22;4090;49.270;8.696;2023-07-20T14:00:05;27.60;64.00
8095;DHT22;4090;49.270;8.696;2023-07-20T14:02:56;27.70;65.40
8095;DHT22;4090;49.270;8.696;2023-07-20T14:05:38;27.80;63.70
8095;DHT22;4090;49.270;8.696;2023-07-20T14:08:21;27.90;61.10
8095;DHT22;4090;49.270;8.696;2023-07-20T14:11:03;28.00;62.70
8095;DHT22;4090;49.270;8.696;2023-07-20T14:13:45;28.00;64.40
8095;DHT22;4090;49.270;8.696;2023-07-20T14:16:27;28.10;62.10
8095;DHT22;4090;49.270;8.696;2023-07-20T14:19:10;28.10;63.60
8095;DHT22;4090;49.270;8.696;2023-07-20T14:21:53;28.00;62.60
8095;DHT22;4090;49.270;8.696;2023-07-20T14:24:35;28.00;63.10
8095;DHT22;4090;49.270;8.696;2023-07-20T14:27:17;28.00;61.60
8095;DHT22;4090;49.270;8.696;2023-07-20T14:29:59;27.90;66.60
8095;DHT22;4090;49.270;8.696;2023-07-20T14:32:42;27.80;66.90
8095;DHT22;4090;49.270;8.696;2023-07-20T14:35:26;27.80;63.20
8095;DHT22;4090;49.270;8.696;2023-07-20T14:38:07;27.80;66.90
8095;DHT22;4090;49.270;8.696;2023-07-20T14:40:50;27.90;62.40
8095;DHT22;4090;49.270;8.696;2023-07-20T14:43:32;28.00;64.40
8095;DHT22;4090;49.270;8.696;2023-07-20T14:46:14;27.90;65.90
8095;DHT22;4090;49.270;8.696;2023-07-20T14:48:56;27.90;65.00
8095;DHT22;4090;49.270;8.696;2023-07-20T14:51:39;28.00;59.80
8095;DHT22;4090;49.270;8.696;2023-07-20T14:54:24;28.00;59.80
8095;DHT22;4090;49.270;8.696;2023-07-20T14:57:06;28.20;57.60
8095;DHT22;4090;49.270;8.696;2023-07-20T14:59:54;28.20;56.80
8095;DHT22;4090;49.270;8.696;2023-07-20T15:02:36;28.10;58.80
8095;DHT22;4090;49.270;8.696;2023-07-20T15:05:21;28.10;62.90
8095;DHT22;4090;49.270;8.696;2023-07-20T15:08:04;28.10;65.20
8095;DHT22;4090;49.270;8.696;2023-07-20T15:10:48;28.00;63.50
8095;DHT22;4090;49.270;8.696;2023-07-20T15:13:30;28.10;61.10
8095;DHT22;4090;49.270;8.696;2023-07-20T15:16:12;28.10;65.20
8095;DHT22;4090;49.270;8.696;2023-07-20T15:18:54;28.10;65.20
8095;DHT22;4090;49.270;8.696;2023-07-20T15:21:36;28.20;61.40
8095;DHT22;4090;49.270;8.696;2023-07-20T15:24:19;28.40;59.10
8095;DHT22;4090;49.270;8.696;2023-07-20T15:27:01;28.40;57.90
8095;DHT22;4090;49.270;8.696;2023-07-20T15:29:43;28.50;57.70
8095;DHT22;4090;49.270;8.696;2023-07-20T15:32:26;28.50;60.40
8095;DHT22;4090;49.270;8.696;2023-07-20T15:35:08;28.50;58.20
8095;DHT22;4090;49.270;8.696;2023-07-20T15:37:50;28.50;61.00
8095;DHT22;4090;49.270;8.696;2023-07-20T15:40:34;28.60;58.80
8095;DHT22;4090;49.270;8.696;2023-07-20T15:43:16;28.70;59.40
8095;DHT22;4090;49.270;8.696;2023-07-20T15:46:02;28.70;59.10
8095;DHT22;4090;49.270;8.696;2023-07-20T15:48:44;28.70;58.60
8095;DHT22;4090;49.270;8.696;2023-07-20T15:51:26;28.60;58.60
8095;DHT22;4090;49.270;8.696;2023-07-20T15:54:09;28.60;58.90
8095;DHT22;4090;49.270;8.696;2023-07-20T15:56:52;28.70;58.50
8095;DHT22;4090;49.270;8.696;2023-07-20T15:59:34;28.60;58.30
8095;DHT22;4090;49.270;8.696;2023-07-20T16:02:16;28.50;60.60
8095;DHT22;4090;49.270;8.696;2023-07-20T16:04:58;28.50;62.10
8095;DHT22;4090;49.270;8.696;2023-07-20T16:07:41;28.50;60.10
8095;DHT22;4090;49.270;8.696;2023-07-20T16:10:24;28.60;58.80
8095;DHT22;4090;49.270;8.696;2023-07-20T16:13:07;28.50;58.50
8095;DHT22;4090;49.270;8.696;2023-07-20T16:15:49;28.50;58.30
8095;DHT22;4090;49.270;8.696;2023-07-20T16:18:31;28.50;59.00
8095;DHT22;4090;49.270;8.696;2023-07-20T16:21:13;28.40;62.30
8095;DHT22;4090;49.270;8.696;2023-07-20T16:23:56;28.30;66.00
8095;DHT22;4090;49.270;8.696;2023-07-20T16:26:38;28.30;64.20
8095;DHT22;4090;49.270;8.696;2023-07-20T16:29:25;28.20;82.00
8095;DHT22;4090;49.270;8.696;2023-07-20T16:32:08;28.20;85.90
8095;DHT22;4090;49.270;8.696;2023-07-20T16:40:15;28.20;89.90
8095;DHT22;4090;49.270;8.696;2023-07-20T16:42:57;28.20;90.40
8095;DHT22;4090;49.270;8.696;2023-07-20T16:45:40;28.00;90.00
8095;DHT22;4090;49.270;8.696;2023-07-20T16:48:23;28.00;87.00
8095;DHT22;4090;49.270;8.696;2023-07-20T16:51:05;27.90;88.10
8095;DHT22;4090;49.270;8.696;2023-07-20T16:53:48;27.90;90.20
8095;DHT22;4090;49.270;8.696;2023-07-20T16:56:30;27.90;88.90
8095;DHT22;4090;49.270;8.696;2023-07-20T16:59:12;27.80;91.20
8095;DHT22;4090;49.270;8.696;2023-07-20T17:01:56;27.90;87.70
8095;DHT22;4090;49.270;8.696;2023-07-20T17:04:38;27.90;89.80
8095;DHT22;4090;49.270;8.696;2023-07-20T17:07:20;27.80;90.60
8095;DHT22;4090;49.270;8.696;2023-07-20T17:10:02;27.80;90.50
8095;DHT22;4090;49.270;8.696;2023-07-20T17:12:46;27.80;91.70
8095;DHT22;4090;49.270;8.696;2023-07-20T17:15:28;27.70;91.20
8095;DHT22;4090;49.270;8.696;2023-07-20T17:18:12;27.70;91.10
8095;DHT22;4090;49.270;8.696;2023-07-20T17:20:54;27.70;89.60
8095;DHT22;4090;49.270;8.696;2023-07-20T17:23:36;27.70;90.50
8095;DHT22;4090;49.270;8.696;2023-07-20T17:26:18;27.70;87.00
8095;DHT22;4090;49.270;8.696;2023-07-20T17:29:00;27.80;73.10
8095;DHT22;4090;49.270;8.696;2023-07-20T17:31:42;27.80;74.50
8095;DHT22;4090;49.270;8.696;2023-07-20T17:34:25;27.80;73.70
8095;DHT22;4090;49.270;8.696;2023-07-20T17:37:07;27.70;76.10
8095;DHT22;4090;49.270;8.696;2023-07-20T17:39:50;27.70;74.70
8095;DHT22;4090;49.270;8.696;2023-07-20T17:42:32;27.70;73.00
8095;DHT22;4090;49.270;8.696;2023-07-20T17:45:14;27.60;75.10
8095;DHT22;4090;49.270;8.696;2023-07-20T17:47:55;27.70;74.30
8095;DHT22;4090;49.270;8.696;2023-07-20T17:50:39;27.60;73.50